sensor_id;sensor_type;location;lat;lon;timestamp;P1;durP1;ratioP1;P2;durP2;ratioP2
22935;SDS011;11633;42.716;23.312;2022-08-18T00:01:38;3.50;;;2.50;;
22935;SDS011;11633;42.716;23.312;2022-08-18T00:04:05;4.30;;;2.35;;
22935;SDS011;11633;42.716;23.312;2022-08-18T00:06:30;3.63;;;2.33;;
22935;SDS011;11633;42.716;23.312;2022-08-18T00:08:59;3.10;;;2.40;;
22935;SDS011;11633;42.716;23.312;2022-08-18T00:11:25;3.97;;;2.15;;
22935;SDS011;11633;42.716;23.312;2022-08-18T00:13:50;2.83;;;2.20;;
22935;SDS011;11633;42.716;23.312;2022-08-18T00:16:16;2.35;;;2.08;;
22935;SDS011;11633;42.716;23.312;2022-08-18T00:18:41;2.78;;;2.47;;
22935;SDS011;11633;42.716;23.312;2022-08-18T00:21:06;2.28;;;2.08;;
22935;SDS011;11633;42.716;23.312;2022-08-18T00:23:31;3.15;;;2.22;;
22935;SDS011;11633;42.716;23.312;2022-08-18T00:25:57;5.18;;;2.67;;
22935;SDS011;11633;42.716;23.312;2022-08-18T00:28:24;3.10;;;2.35;;
22935;SDS011;11633;42.716;23.312;2022-08-18T00:30:49;2.50;;;2.28;;
22935;SDS011;11633;42.716;23.312;2022-08-18T00:33:14;3.35;;;2.42;;
22935;SDS011;11633;42.716;23.312;2022-08-18T00:35:40;3.72;;;2.42;;
22935;SDS011;11633;42.716;23.312;2022-08-18T00:38:05;2.42;;;2.08;;
22935;SDS011;11633;42.716;23.312;2022-08-18T00:40:33;2.70;;;2.00;;
22935;SDS011;11633;42.716;23.312;2022-08-18T00:43:01;4.85;;;2.53;;
22935;SDS011;11633;42.716;23.312;2022-08-18T00:45:28;3.20;;;2.40;;
22935;SDS011;11633;42.716;23.312;2022-08-18T00:47:54;2.20;;;2.00;;
22935;SDS011;11633;42.716;23.312;2022-08-18T00:50:21;3.10;;;2.45;;
22935;SDS011;11633;42.716;23.312;2022-08-18T00:52:49;3.13;;;2.83;;
22935;SDS011;11633;42.716;23.312;2022-08-18T00:55:16;2.42;;;2.20;;
22935;SDS011;11633;42.716;23.312;2022-08-18T00:57:43;3.13;;;2.45;;
22935;SDS011;11633;42.716;23.312;2022-08-18T01:00:10;2.60;;;2.38;;
22935;SDS011;11633;42.716;23.312;2022-08-18T01:02:36;2.65;;;2.45;;
22935;SDS011;11633;42.716;23.312;2022-08-18T01:05:15;3.15;;;2.30;;
22935;SDS011;11633;42.716;23.312;2022-08-18T01:07:43;3.75;;;2.17;;
22935;SDS011;11633;42.716;23.312;2022-08-18T01:10:12;3.63;;;2.72;;
22935;SDS011;11633;42.716;23.312;2022-08-18T01:12:44;2.75;;;2.50;;
22935;SDS011;11633;42.716;23.312;2022-08-18T01:15:10;3.00;;;2.47;;
22935;SDS011;11633;42.716;23.312;2022-08-18T01:17:37;2.47;;;2.25;;
22935;SDS011;11633;42.716;23.312;2022-08-18T01:20:21;3.17;;;2.55;;
22935;SDS011;11633;42.716;23.312;2022-08-18T01:23:12;3.22;;;2.80;;
22935;SDS011;11633;42.716;23.312;2022-08-18T01:25:38;3.38;;;2.88;;
22935;SDS011;11633;42.716;23.312;2022-08-18T01:28:23;3.33;;;2.78;;
22935;SDS011;11633;42.716;23.312;2022-08-18T01:30:49;3.92;;;2.90;;
22935;SDS011;11633;42.716;23.312;2022-08-18T01:33:15;6.43;;;2.90;;
22935;SDS011;11633;42.716;23.312;2022-08-18T01:35:41;3.80;;;2.78;;
22935;SDS011;11633;42.716;23.312;2022-08-18T01:38:07;4.75;;;2.83;;
22935;SDS011;11633;42.716;23.312;2022-08-18T01:40:33;3.60;;;3.28;;
22935;SDS011;11633;42.716;23.312;2022-08-18T01:42:58;4.85;;;3.13;;
22935;SDS011;11633;42.716;23.312;2022-08-18T01:45:27;3.50;;;3.20;;
22935;SDS011;11633;42.716;23.312;2022-08-18T01:47:52;2.85;;;2.65;;
22935;SDS011;11633;42.716;23.312;2022-08-18T01:50:18;2.90;;;2.60;;
22935;SDS011;11633;42.716;23.312;2022-08-18T01:52:44;3.90;;;2.80;;
22935;SDS011;11633;42.716;23.312;2022-08-18T01:55:09;3.25;;;2.95;;
22935;SDS011;11633;42.716;23.312;2022-08-18T01:57:35;4.57;;;3.40;;
22935;SDS011;11633;42.716;23.312;2022-08-18T02:00:05;2.95;;;2.63;;
22935;SDS011;11633;42.716;23.312;2022-08-18T02:02:30;3.80;;;3.25;;
22935;SDS011;11633;42.716;23.312;2022-08-18T02:05:04;3.72;;;3.08;;
22935;SDS011;11633;42.716;23.312;2022-08-18T02:07:32;4.03;;;2.97;;
22935;SDS011;11633;42.716;23.312;2022-08-18T02:09:57;3.15;;;2.85;;
22935;SDS011;11633;42.716;23.312;2022-08-18T02:12:22;4.65;;;3.35;;
22935;SDS011;11633;42.716;23.312;2022-08-18T02:14:47;3.13;;;2.83;;
22935;SDS011;11633;42.716;23.312;2022-08-18T02:17:14;3.15;;;2.85;;
22935;SDS011;11633;42.716;23.312;2022-08-18T02:19:40;3.63;;;2.95;;
22935;SDS011;11633;42.716;23.312;2022-08-18T02:22:06;4.85;;;3.40;;
22935;SDS011;11633;42.716;23.312;2022-08-18T02:24:32;3.85;;;3.10;;
22935;SDS011;11633;42.716;23.312;2022-08-18T02:26:57;7.78;;;4.43;;
22935;SDS011;11633;42.716;23.312;2022-08-18T02:29:22;4.95;;;3.70;;
22935;SDS011;11633;42.716;23.312;2022-08-18T02:31:48;3.67;;;3.20;;
22935;SDS011;11633;42.716;23.312;2022-08-18T02:34:14;4.53;;;3.63;;
22935;SDS011;11633;42.716;23.312;2022-08-18T02:36:39;4.78;;;3.85;;
22935;SDS011;11633;42.716;23.312;2022-08-18T02:39:04;4.47;;;3.90;;
22935;SDS011;11633;42.716;23.312;2022-08-18T02:41:29;3.90;;;3.20;;
22935;SDS011;11633;42.716;23.312;2022-08-18T02:43:55;4.00;;;3.45;;
22935;SDS011;11633;42.716;23.312;2022-08-18T02:46:21;4.47;;;3.42;;
22935;SDS011;11633;42.716;23.312;2022-08-18T02:48:46;6.97;;;5.38;;
22935;SDS011;11633;42.716;23.312;2022-08-18T02:51:14;4.65;;;3.63;;
22935;SDS011;11633;42.716;23.312;2022-08-18T02:53:40;5.15;;;3.97;;
22935;SDS011;11633;42.716;23.312;2022-08-18T02:56:26;3.88;;;3.33;;
22935;SDS011;11633;42.716;23.312;2022-08-18T02:58:55;5.70;;;3.17;;
22935;SDS011;11633;42.716;23.312;2022-08-18T03:01:22;4.88;;;3.13;;
22935;SDS011;11633;42.716;23.312;2022-08-18T03:03:48;5.07;;;3.90;;
22935;SDS011;11633;42.716;23.312;2022-08-18T03:06:13;3.50;;;2.80;;
22935;SDS011;11633;42.716;23.312;2022-08-18T03:08:39;4.10;;;3.70;;
22935;SDS011;11633;42.716;23.312;2022-08-18T03:11:04;3.90;;;3.28;;
22935;SDS011;11633;42.716;23.312;2022-08-18T03:13:29;3.38;;;2.97;;
22935;SDS011;11633;42.716;23.312;2022-08-18T03:15:55;4.47;;;3.78;;
22935;SDS011;11633;42.716;23.312;2022-08-18T03:18:21;3.92;;;3.33;;
22935;SDS011;11633;42.716;23.312;2022-08-18T03:20:47;6.82;;;5.22;;
22935;SDS011;11633;42.716;23.312;2022-08-18T03:23:12;4.13;;;3.72;;
22935;SDS011;11633;42.716;23.312;2022-08-18T03:25:47;7.80;;;3.88;;
22935;SDS011;11633;42.716;23.312;2022-08-18T03:28:13;5.55;;;4.68;;
22935;SDS011;11633;42.716;23.312;2022-08-18T03:30:39;5.72;;;4.60;;
22935;SDS011;11633;42.716;23.312;2022-08-18T03:33:04;5.60;;;4.00;;
22935;SDS011;11633;42.716;23.312;2022-08-18T03:35:29;4.45;;;3.80;;
22935;SDS011;11633;42.716;23.312;2022-08-18T03:37:58;3.83;;;2.90;;
22935;SDS011;11633;42.716;23.312;2022-08-18T03:40:23;6.72;;;3.80;;
22935;SDS011;11633;42.716;23.312;2022-08-18T03:42:48;5.55;;;4.07;;
22935;SDS011;11633;42.716;23.312;2022-08-18T03:45:14;4.97;;;3.35;;
22935;SDS011;11633;42.716;23.312;2022-08-18T03:47:39;4.03;;;3.63;;
22935;SDS011;11633;42.716;23.312;2022-08-18T03:50:04;7.25;;;3.53;;
22935;SDS011;11633;42.716;23.312;2022-08-18T03:52:30;3.92;;;3.53;;
22935;SDS011;11633;42.716;23.312;2022-08-18T03:54:55;5.15;;;3.78;;
22935;SDS011;11633;42.716;23.312;2022-08-18T03:57:20;5.32;;;3.42;;
22935;SDS011;11633;42.716;23.312;2022-08-18T03:59:45;4.15;;;3.75;;
22935;SDS011;11633;42.716;23.312;2022-08-18T04:02:11;5.15;;;3.00;;
22935;SDS011;11633;42.716;23.312;2022-08-18T04:04:36;3.58;;;2.90;;
22935;SDS011;11633;42.716;23.312;2022-08-18T04:07:04;3.85;;;3.15;;
22935;SDS011;11633;42.716;23.312;2022-08-18T04:09:31;3.55;;;3.25;;
22935;SDS011;11633;42.716;23.312;2022-08-18T04:11:57;3.88;;;3.47;;
22935;SDS011;11633;42.716;23.312;2022-08-18T04:14:23;3.70;;;3.38;;
22935;SDS011;11633;42.716;23.312;2022-08-18T04:16:49;4.05;;;3.40;;
22935;SDS011;11633;42.716;23.312;2022-08-18T04:19:15;4.78;;;3.78;;
22935;SDS011;11633;42.716;23.312;2022-08-18T04:21:42;4.18;;;3.78;;
22935;SDS011;11633;42.716;23.312;2022-08-18T04:24:08;5.65;;;4.10;;
22935;SDS011;11633;42.716;23.312;2022-08-18T04:26:35;4.65;;;4.25;;
22935;SDS011;11633;42.716;23.312;2022-08-18T04:29:01;3.90;;;3.50;;
22935;SDS011;11633;42.716;23.312;2022-08-18T04:31:27;4.72;;;3.78;;
22935;SDS011;11633;42.716;23.312;2022-08-18T04:33:53;5.07;;;4.03;;
22935;SDS011;11633;42.716;23.312;2022-08-18T04:36:18;4.07;;;3.65;;
22935;SDS011;11633;42.716;23.312;2022-08-18T04:38:44;4.78;;;4.18;;
22935;SDS011;11633;42.716;23.312;2022-08-18T04:41:10;7.32;;;4.13;;
22935;SDS011;11633;42.716;23.312;2022-08-18T04:43:36;4.30;;;3.90;;
22935;SDS011;11633;42.716;23.312;2022-08-18T04:46:02;4.22;;;3.63;;
22935;SDS011;11633;42.716;23.312;2022-08-18T04:48:28;6.68;;;4.10;;
22935;SDS011;11633;42.716;23.312;2022-08-18T04:50:57;7.07;;;3.63;;
22935;SDS011;11633;42.716;23.312;2022-08-18T04:53:22;3.65;;;3.33;;
22935;SDS011;11633;42.716;23.312;2022-08-18T04:56:06;5.57;;;3.85;;
22935;SDS011;11633;42.716;23.312;2022-08-18T04:58:31;4.15;;;3.75;;
22935;SDS011;11633;42.716;23.312;2022-08-18T05:00:58;5.07;;;3.88;;
22935;SDS011;11633;42.716;23.312;2022-08-18T05:03:23;4.60;;;4.18;;
22935;SDS011;11633;42.716;23.312;2022-08-18T05:05:51;4.03;;;3.65;;
22935;SDS011;11633;42.716;23.312;2022-08-18T05:08:16;3.83;;;3.35;;
22935;SDS011;11633;42.716;23.312;2022-08-18T05:10:41;4.15;;;3.47;;
22935;SDS011;11633;42.716;23.312;2022-08-18T05:13:07;3.83;;;3.27;;
22935;SDS011;11633;42.716;23.312;2022-08-18T05:15:32;3.63;;;3.13;;
22935;SDS011;11633;42.716;23.312;2022-08-18T05:17:58;5.30;;;3.42;;
22935;SDS011;11633;42.716;23.312;2022-08-18T05:20:23;3.10;;;2.80;;
22935;SDS011;11633;42.716;23.312;2022-08-18T05:22:49;5.30;;;3.17;;
22935;SDS011;11633;42.716;23.312;2022-08-18T05:25:14;3.35;;;3.05;;
22935;SDS011;11633;42.716;23.312;2022-08-18T05:27:40;4.25;;;3.53;;
22935;SDS011;11633;42.716;23.312;2022-08-18T05:30:07;3.80;;;3.40;;
22935;SDS011;11633;42.716;23.312;2022-08-18T05:32:34;3.47;;;3.17;;
22935;SDS011;11633;42.716;23.312;2022-08-18T05:35:03;4.10;;;3.70;;
22935;SDS011;11633;42.716;23.312;2022-08-18T05:37:35;4.47;;;4.07;;
22935;SDS011;11633;42.716;23.312;2022-08-18T05:40:03;5.70;;;3.88;;
22935;SDS011;11633;42.716;23.312;2022-08-18T05:42:37;4.30;;;3.90;;
22935;SDS011;11633;42.716;23.312;2022-08-18T05:45:07;5.00;;;3.85;;
22935;SDS011;11633;42.716;23.312;2022-08-18T05:47:33;3.88;;;3.38;;
22935;SDS011;11633;42.716;23.312;2022-08-18T05:50:05;3.85;;;3.25;;
22935;SDS011;11633;42.716;23.312;2022-08-18T05:52:32;4.28;;;3.65;;
22935;SDS011;11633;42.716;23.312;2022-08-18T05:55:00;3.95;;;3.55;;
22935;SDS011;11633;42.716;23.312;2022-08-18T05:57:54;3.30;;;3.00;;
22935;SDS011;11633;42.716;23.312;2022-08-18T06:00:20;4.32;;;3.20;;
22935;SDS011;11633;42.716;23.312;2022-08-18T06:03:01;4.32;;;3.20;;
22935;SDS011;11633;42.716;23.312;2022-08-18T06:05:32;3.70;;;3.40;;
22935;SDS011;11633;42.716;23.312;2022-08-18T06:08:00;3.95;;;3.55;;
22935;SDS011;11633;42.716;23.312;2022-08-18T06:10:26;3.75;;;3.35;;
22935;SDS011;11633;42.716;23.312;2022-08-18T06:12:52;5.65;;;3.10;;
22935;SDS011;11633;42.716;23.312;2022-08-18T06:15:28;3.15;;;2.92;;
22935;SDS011;11633;42.716;23.312;2022-08-18T06:20:33;3.40;;;3.10;;
22935;SDS011;11633;42.716;23.312;2022-08-18T06:28:14;3.80;;;3.40;;
22935;SDS011;11633;42.716;23.312;2022-08-18T06:36:01;3.25;;;2.95;;
22935;SDS011;11633;42.716;23.312;2022-08-18T06:41:32;3.40;;;3.08;;
22935;SDS011;11633;42.716;23.312;2022-08-18T06:46:28;3.67;;;3.23;;
22935;SDS011;11633;42.716;23.312;2022-08-18T06:48:58;3.45;;;3.15;;
22935;SDS011;11633;42.716;23.312;2022-08-18T06:51:28;3.28;;;3.03;;
22935;SDS011;11633;42.716;23.312;2022-08-18T06:53:58;3.72;;;2.60;;
22935;SDS011;11633;42.716;23.312;2022-08-18T06:58:49;3.25;;;2.95;;
22935;SDS011;11633;42.716;23.312;2022-08-18T07:01:18;3.35;;;3.00;;
22935;SDS011;11633;42.716;23.312;2022-08-18T07:03:53;3.10;;;2.83;;
22935;SDS011;11633;42.716;23.312;2022-08-18T07:08:46;3.55;;;2.80;;
22935;SDS011;11633;42.716;23.312;2022-08-18T07:11:14;2.78;;;2.58;;
22935;SDS011;11633;42.716;23.312;2022-08-18T07:13:42;3.45;;;2.67;;
22935;SDS011;11633;42.716;23.312;2022-08-18T07:16:30;6.50;;;3.50;;
22935;SDS011;11633;42.716;23.312;2022-08-18T07:21:33;3.20;;;2.90;;
22935;SDS011;11633;42.716;23.312;2022-08-18T07:24:06;3.20;;;2.90;;
22935;SDS011;11633;42.716;23.312;2022-08-18T07:29:18;3.63;;;3.08;;
22935;SDS011;11633;42.716;23.312;2022-08-18T07:31:45;4.72;;;3.20;;
22935;SDS011;11633;42.716;23.312;2022-08-18T07:37:13;3.90;;;3.17;;
22935;SDS011;11633;42.716;23.312;2022-08-18T07:39:42;2.75;;;2.40;;
22935;SDS011;11633;42.716;23.312;2022-08-18T07:42:16;3.17;;;2.88;;
22935;SDS011;11633;42.716;23.312;2022-08-18T07:44:49;3.63;;;2.70;;
22935;SDS011;11633;42.716;23.312;2022-08-18T07:47:21;2.67;;;2.42;;
22935;SDS011;11633;42.716;23.312;2022-08-18T07:49:48;4.13;;;2.88;;
22935;SDS011;11633;42.716;23.312;2022-08-18T07:57:32;5.40;;;2.78;;
22935;SDS011;11633;42.716;23.312;2022-08-18T08:02:33;3.40;;;3.10;;
22935;SDS011;11633;42.716;23.312;2022-08-18T08:10:04;4.50;;;2.50;;
22935;SDS011;11633;42.716;23.312;2022-08-18T08:25:30;2.53;;;2.30;;
22935;SDS011;11633;42.716;23.312;2022-08-18T08:30:28;4.47;;;2.63;;
22935;SDS011;11633;42.716;23.312;2022-08-18T08:33:01;2.72;;;2.53;;
22935;SDS011;11633;42.716;23.312;2022-08-18T08:36:12;4.57;;;2.60;;
22935;SDS011;11633;42.716;23.312;2022-08-18T08:43:16;2.67;;;2.47;;
22935;SDS011;11633;42.716;23.312;2022-08-18T08:45:44;2.67;;;2.40;;
22935;SDS011;11633;42.716;23.312;2022-08-18T08:48:13;2.72;;;2.28;;
22935;SDS011;11633;42.716;23.312;2022-08-18T08:50:46;2.60;;;2.35;;
22935;SDS011;11633;42.716;23.312;2022-08-18T08:55:45;2.33;;;2.13;;
22935;SDS011;11633;42.716;23.312;2022-08-18T09:00:50;2.63;;;2.42;;
22935;SDS011;11633;42.716;23.312;2022-08-18T09:03:25;2.60;;;2.38;;
22935;SDS011;11633;42.716;23.312;2022-08-18T09:18:55;2.58;;;2.25;;
22935;SDS011;11633;42.716;23.312;2022-08-18T09:24:16;2.22;;;2.03;;
22935;SDS011;11633;42.716;23.312;2022-08-18T09:26:49;2.05;;;1.92;;
22935;SDS011;11633;42.716;23.312;2022-08-18T09:29:16;2.42;;;2.22;;
22935;SDS011;11633;42.716;23.312;2022-08-18T09:31:43;2.33;;;2.15;;
22935;SDS011;11633;42.716;23.312;2022-08-18T09:37:04;4.60;;;2.45;;
22935;SDS011;11633;42.716;23.312;2022-08-18T09:39:39;2.78;;;2.58;;
22935;SDS011;11633;42.716;23.312;2022-08-18T09:42:37;2.75;;;2.30;;
22935;SDS011;11633;42.716;23.312;2022-08-18T09:45:07;2.40;;;2.22;;
22935;SDS011;11633;42.716;23.312;2022-08-18T09:57:23;2.40;;;2.10;;
22935;SDS011;11633;42.716;23.312;2022-08-18T09:59:50;2.53;;;2.33;;
22935;SDS011;11633;42.716;23.312;2022-08-18T10:05:04;3.20;;;2.28;;
22935;SDS011;11633;42.716;23.312;2022-08-18T10:07:46;2.65;;;2.15;;
22935;SDS011;11633;42.716;23.312;2022-08-18T10:15:15;2.42;;;2.22;;
22935;SDS011;11633;42.716;23.312;2022-08-18T10:20:55;3.75;;;2.35;;
22935;SDS011;11633;42.716;23.312;2022-08-18T10:22:59;2.20;;;1.70;;
22935;SDS011;11633;42.716;23.312;2022-08-18T10:25:33;2.50;;;2.30;;
22935;SDS011;11633;42.716;23.312;2022-08-18T10:27:58;2.47;;;2.30;;
22935;SDS011;11633;42.716;23.312;2022-08-18T10:33:01;2.00;;;1.90;;
22935;SDS011;11633;42.716;23.312;2022-08-18T10:38:01;1.67;;;1.58;;
22935;SDS011;11633;42.716;23.312;2022-08-18T10:40:28;2.33;;;2.13;;
22935;SDS011;11633;42.716;23.312;2022-08-18T10:43:07;4.15;;;2.35;;
22935;SDS011;11633;42.716;23.312;2022-08-18T10:45:33;2.03;;;1.90;;
22935;SDS011;11633;42.716;23.312;2022-08-18T10:50:25;6.00;;;2.13;;
22935;SDS011;11633;42.716;23.312;2022-08-18T11:06:05;1.98;;;1.85;;
22935;SDS011;11633;42.716;23.312;2022-08-18T11:08:31;2.53;;;2.10;;
22935;SDS011;11633;42.716;23.312;2022-08-18T11:11:04;1.98;;;1.88;;
22935;SDS011;11633;42.716;23.312;2022-08-18T11:18:43;2.50;;;1.67;;
22935;SDS011;11633;42.716;23.312;2022-08-18T11:24:07;3.03;;;1.80;;
22935;SDS011;11633;42.716;23.312;2022-08-18T11:26:35;3.15;;;2.20;;
22935;SDS011;11633;42.716;23.312;2022-08-18T11:31:45;1.90;;;1.73;;
22935;SDS011;11633;42.716;23.312;2022-08-18T11:34:14;2.10;;;1.95;;
22935;SDS011;11633;42.716;23.312;2022-08-18T11:36:41;2.35;;;2.15;;
22935;SDS011;11633;42.716;23.312;2022-08-18T11:39:09;2.47;;;2.05;;
22935;SDS011;11633;42.716;23.312;2022-08-18T11:41:35;2.22;;;2.03;;
22935;SDS011;11633;42.716;23.312;2022-08-18T11:44:02;2.65;;;1.77;;
22935;SDS011;11633;42.716;23.312;2022-08-18T11:46:31;1.80;;;1.70;;
22935;SDS011;11633;42.716;23.312;2022-08-18T11:49:11;2.30;;;2.10;;
22935;SDS011;11633;42.716;23.312;2022-08-18T11:51:51;2.58;;;2.38;;
22935;SDS011;11633;42.716;23.312;2022-08-18T11:54:20;2.15;;;1.95;;
22935;SDS011;11633;42.716;23.312;2022-08-18T11:56:46;2.20;;;2.00;;
22935;SDS011;11633;42.716;23.312;2022-08-18T12:01:49;2.88;;;2.45;;
22935;SDS011;11633;42.716;23.312;2022-08-18T12:11:37;2.60;;;2.40;;
22935;SDS011;11633;42.716;23.312;2022-08-18T12:14:17;2.45;;;1.98;;
22935;SDS011;11633;42.716;23.312;2022-08-18T12:16:43;2.78;;;2.10;;
22935;SDS011;11633;42.716;23.312;2022-08-18T12:19:09;2.45;;;2.13;;
22935;SDS011;11633;42.716;23.312;2022-08-18T12:21:36;2.42;;;2.22;;
22935;SDS011;11633;42.716;23.312;2022-08-18T12:24:02;2.22;;;2.08;;
22935;SDS011;11633;42.716;23.312;2022-08-18T12:26:27;2.40;;;2.20;;
22935;SDS011;11633;42.716;23.312;2022-08-18T12:28:52;2.22;;;2.03;;
22935;SDS011;11633;42.716;23.312;2022-08-18T12:31:18;2.60;;;2.35;;
22935;SDS011;11633;42.716;23.312;2022-08-18T12:33:43;2.40;;;2.10;;
22935;SDS011;11633;42.716;23.312;2022-08-18T12:36:08;2.55;;;2.35;;
22935;SDS011;11633;42.716;23.312;2022-08-18T12:38:33;2.35;;;2.17;;
22935;SDS011;11633;42.716;23.312;2022-08-18T12:40:59;3.88;;;2.00;;
22935;SDS011;11633;42.716;23.312;2022-08-18T12:43:24;3.20;;;2.58;;
22935;SDS011;11633;42.716;23.312;2022-08-18T12:45:50;3.20;;;2.45;;
22935;SDS011;11633;42.716;23.312;2022-08-18T12:48:15;2.33;;;2.13;;
22935;SDS011;11633;42.716;23.312;2022-08-18T12:50:41;2.70;;;2.50;;
22935;SDS011;11633;42.716;23.312;2022-08-18T12:53:06;2.25;;;2.05;;
22935;SDS011;11633;42.716;23.312;2022-08-18T12:55:33;2.70;;;2.50;;
22935;SDS011;11633;42.716;23.312;2022-08-18T12:57:58;2.53;;;2.33;;
22935;SDS011;11633;42.716;23.312;2022-08-18T13:00:24;2.63;;;2.42;;
22935;SDS011;11633;42.716;23.312;2022-08-18T13:02:49;2.42;;;2.22;;
22935;SDS011;11633;42.716;23.312;2022-08-18T13:05:16;3.22;;;2.30;;
22935;SDS011;11633;42.716;23.312;2022-08-18T13:07:41;2.30;;;2.13;;
22935;SDS011;11633;42.716;23.312;2022-08-18T13:10:07;2.88;;;2.42;;
22935;SDS011;11633;42.716;23.312;2022-08-18T13:12:32;2.75;;;2.38;;
22935;SDS011;11633;42.716;23.312;2022-08-18T13:14:58;2.30;;;2.15;;
22935;SDS011;11633;42.716;23.312;2022-08-18T13:17:23;2.42;;;2.15;;
22935;SDS011;11633;42.716;23.312;2022-08-18T13:19:48;2.63;;;2.15;;
22935;SDS011;11633;42.716;23.312;2022-08-18T13:22:14;3.70;;;2.45;;
22935;SDS011;11633;42.716;23.312;2022-08-18T13:24:40;2.38;;;2.17;;
22935;SDS011;11633;42.716;23.312;2022-08-18T13:27:05;3.23;;;2.77;;
22935;SDS011;11633;42.716;23.312;2022-08-18T13:29:30;2.60;;;2.40;;
22935;SDS011;11633;42.716;23.312;2022-08-18T13:31:55;2.47;;;2.28;;
22935;SDS011;11633;42.716;23.312;2022-08-18T13:34:23;2.65;;;1.98;;
22935;SDS011;11633;42.716;23.312;2022-08-18T13:36:48;2.40;;;2.20;;
22935;SDS011;11633;42.716;23.312;2022-08-18T13:39:15;2.07;;;1.90;;
22935;SDS011;11633;42.716;23.312;2022-08-18T13:41:40;2.15;;;2.05;;
22935;SDS011;11633;42.716;23.312;2022-08-18T13:44:07;3.08;;;2.38;;
22935;SDS011;11633;42.716;23.312;2022-08-18T13:46:33;2.10;;;2.00;;
22935;SDS011;11633;42.716;23.312;2022-08-18T13:48:58;3.07;;;2.80;;
22935;SDS011;11633;42.716;23.312;2022-08-18T13:51:26;2.42;;;2.22;;
22935;SDS011;11633;42.716;23.312;2022-08-18T13:53:51;2.55;;;2.35;;
22935;SDS011;11633;42.716;23.312;2022-08-18T13:56:17;2.22;;;2.10;;
22935;SDS011;11633;42.716;23.312;2022-08-18T13:58:43;2.28;;;2.00;;
22935;SDS011;11633;42.716;23.312;2022-08-18T14:01:08;2.38;;;2.17;;
22935;SDS011;11633;42.716;23.312;2022-08-18T14:03:35;2.45;;;2.25;;
22935;SDS011;11633;42.716;23.312;2022-08-18T14:06:01;2.35;;;2.15;;
22935;SDS011;11633;42.716;23.312;2022-08-18T14:08:27;2.33;;;2.05;;
22935;SDS011;11633;42.716;23.312;2022-08-18T14:10:53;2.28;;;2.08;;
22935;SDS011;11633;42.716;23.312;2022-08-18T14:13:19;2.60;;;2.40;;
22935;SDS011;11633;42.716;23.312;2022-08-18T14:15:45;2.47;;;2.28;;
22935;SDS011;11633;42.716;23.312;2022-08-18T14:18:10;4.18;;;2.35;;
22935;SDS011;11633;42.716;23.312;2022-08-18T14:20:35;2.05;;;1.90;;
22935;SDS011;11633;42.716;23.312;2022-08-18T14:23:19;2.38;;;2.17;;
22935;SDS011;11633;42.716;23.312;2022-08-18T14:26:03;3.08;;;2.42;;
22935;SDS011;11633;42.716;23.312;2022-08-18T14:28:47;2.88;;;2.67;;
22935;SDS011;11633;42.716;23.312;2022-08-18T14:31:12;3.28;;;2.97;;
22935;SDS011;11633;42.716;23.312;2022-08-18T14:33:38;2.53;;;2.33;;
22935;SDS011;11633;42.716;23.312;2022-08-18T14:36:03;2.67;;;2.47;;
22935;SDS011;11633;42.716;23.312;2022-08-18T14:38:29;2.35;;;2.15;;
22935;SDS011;11633;42.716;23.312;2022-08-18T14:40:55;2.45;;;2.25;;
22935;SDS011;11633;42.716;23.312;2022-08-18T14:43:20;3.05;;;2.22;;
22935;SDS011;11633;42.716;23.312;2022-08-18T14:45:46;2.63;;;2.42;;
22935;SDS011;11633;42.716;23.312;2022-08-18T14:48:13;2.50;;;2.30;;
22935;SDS011;11633;42.716;23.312;2022-08-18T14:50:39;3.17;;;2.95;;
22935;SDS011;11633;42.716;23.312;2022-08-18T14:53:05;3.25;;;2.50;;
22935;SDS011;11633;42.716;23.312;2022-08-18T14:55:30;3.80;;;2.28;;
22935;SDS011;11633;42.716;23.312;2022-08-18T14:57:56;2.15;;;1.98;;
22935;SDS011;11633;42.716;23.312;2022-08-18T15:00:21;2.33;;;2.22;;
22935;SDS011;11633;42.716;23.312;2022-08-18T15:02:46;2.60;;;2.40;;
22935;SDS011;11633;42.716;23.312;2022-08-18T15:05:13;3.08;;;2.78;;
22935;SDS011;11633;42.716;23.312;2022-08-18T15:07:39;3.13;;;2.83;;
22935;SDS011;11633;42.716;23.312;2022-08-18T15:10:05;2.40;;;2.20;;
22935;SDS011;11633;42.716;23.312;2022-08-18T15:12:31;2.38;;;2.17;;
22935;SDS011;11633;42.716;23.312;2022-08-18T15:14:56;3.42;;;2.42;;
22935;SDS011;11633;42.716;23.312;2022-08-18T15:17:24;2.75;;;2.55;;
22935;SDS011;11633;42.716;23.312;2022-08-18T15:19:51;2.67;;;2.47;;
22935;SDS011;11633;42.716;23.312;2022-08-18T15:22:16;2.50;;;2.27;;
22935;SDS011;11633;42.716;23.312;2022-08-18T15:25:00;2.80;;;2.60;;
22935;SDS011;11633;42.716;23.312;2022-08-18T15:27:44;3.67;;;2.67;;
22935;SDS011;11633;42.716;23.312;2022-08-18T15:30:10;2.33;;;2.13;;
22935;SDS011;11633;42.716;23.312;2022-08-18T15:32:37;2.70;;;2.50;;
22935;SDS011;11633;42.716;23.312;2022-08-18T15:35:03;3.30;;;3.10;;
22935;SDS011;11633;42.716;23.312;2022-08-18T15:37:28;2.90;;;2.70;;
22935;SDS011;11633;42.716;23.312;2022-08-18T15:40:01;2.65;;;2.45;;
22935;SDS011;11633;42.716;23.312;2022-08-18T15:42:35;2.80;;;2.60;;
22935;SDS011;11633;42.716;23.312;2022-08-18T15:45:00;3.00;;;2.80;;
22935;SDS011;11633;42.716;23.312;2022-08-18T15:47:28;2.83;;;2.63;;
22935;SDS011;11633;42.716;23.312;2022-08-18T15:49:55;2.63;;;2.45;;
22935;SDS011;11633;42.716;23.312;2022-08-18T15:52:20;2.60;;;2.40;;
22935;SDS011;11633;42.716;23.312;2022-08-18T15:54:46;2.70;;;2.50;;
22935;SDS011;11633;42.716;23.312;2022-08-18T15:57:11;3.03;;;2.42;;
22935;SDS011;11633;42.716;23.312;2022-08-18T15:59:37;2.70;;;2.50;;
22935;SDS011;11633;42.716;23.312;2022-08-18T16:02:02;2.95;;;2.75;;
22935;SDS011;11633;42.716;23.312;2022-08-18T16:04:28;2.80;;;2.60;;
22935;SDS011;11633;42.716;23.312;2022-08-18T16:06:53;3.27;;;2.97;;
22935;SDS011;11633;42.716;23.312;2022-08-18T16:09:20;2.58;;;2.38;;
22935;SDS011;11633;42.716;23.312;2022-08-18T16:11:45;2.80;;;2.60;;
22935;SDS011;11633;42.716;23.312;2022-08-18T16:14:11;3.00;;;2.80;;
22935;SDS011;11633;42.716;23.312;2022-08-18T16:16:36;2.80;;;2.38;;
22935;SDS011;11633;42.716;23.312;2022-08-18T16:19:02;2.40;;;2.20;;
22935;SDS011;11633;42.716;23.312;2022-08-18T16:21:28;3.08;;;2.75;;
22935;SDS011;11633;42.716;23.312;2022-08-18T16:23:53;2.50;;;2.30;;
22935;SDS011;11633;42.716;23.312;2022-08-18T16:26:20;2.60;;;2.40;;
22935;SDS011;11633;42.716;23.312;2022-08-18T16:28:46;3.60;;;2.20;;
22935;SDS011;11633;42.716;23.312;2022-08-18T16:31:15;3.22;;;3.03;;
22935;SDS011;11633;42.716;23.312;2022-08-18T16:33:41;3.40;;;2.38;;
22935;SDS011;11633;42.716;23.312;2022-08-18T16:36:07;2.60;;;2.35;;
22935;SDS011;11633;42.716;23.312;2022-08-18T16:38:33;2.60;;;2.40;;
22935;SDS011;11633;42.716;23.312;2022-08-18T16:41:03;2.72;;;2.53;;
22935;SDS011;11633;42.716;23.312;2022-08-18T16:43:30;3.08;;;2.42;;
22935;SDS011;11633;42.716;23.312;2022-08-18T16:45:56;2.65;;;2.42;;
22935;SDS011;11633;42.716;23.312;2022-08-18T16:48:21;2.67;;;2.47;;
22935;SDS011;11633;42.716;23.312;2022-08-18T16:50:46;2.70;;;2.47;;
22935;SDS011;11633;42.716;23.312;2022-08-18T16:53:13;5.47;;;3.58;;
22935;SDS011;11633;42.716;23.312;2022-08-18T16:55:40;3.78;;;3.25;;
22935;SDS011;11633;42.716;23.312;2022-08-18T16:58:05;2.65;;;2.45;;
22935;SDS011;11633;42.716;23.312;2022-08-18T17:00:49;2.22;;;2.03;;
22935;SDS011;11633;42.716;23.312;2022-08-18T17:03:33;2.92;;;2.10;;
22935;SDS011;11633;42.716;23.312;2022-08-18T17:06:17;2.60;;;2.40;;
22935;SDS011;11633;42.716;23.312;2022-08-18T17:08:43;3.05;;;2.22;;